地図

経路データ

SID SEASON NUMBER BASIN SUBBASIN NAME ISO_TIME NATURE LAT LON WMO_WIND WMO_PRES WMO_AGENCY TRACK_TYPE DIST2LAND LANDFALL IFLAG USA_AGENCY USA_ATCF_ID USA_LAT USA_LON USA_RECORD USA_STATUS USA_WIND USA_PRES USA_SSHS USA_R34_NE USA_R34_SE USA_R34_SW USA_R34_NW USA_R50_NE USA_R50_SE USA_R50_SW USA_R50_NW USA_R64_NE USA_R64_SE USA_R64_SW USA_R64_NW USA_POCI USA_ROCI USA_RMW USA_EYE TOKYO_LAT TOKYO_LON TOKYO_GRADE TOKYO_WIND TOKYO_PRES TOKYO_R50_DIR TOKYO_R50_LONG TOKYO_R50_SHORT TOKYO_R30_DIR TOKYO_R30_LONG TOKYO_R30_SHORT TOKYO_LAND CMA_LAT CMA_LON CMA_CAT CMA_WIND CMA_PRES HKO_LAT HKO_LON HKO_CAT HKO_WIND HKO_PRES NEWDELHI_LAT NEWDELHI_LON NEWDELHI_GRADE NEWDELHI_WIND NEWDELHI_PRES NEWDELHI_CI NEWDELHI_DP NEWDELHI_POCI REUNION_LAT REUNION_LON REUNION_TYPE REUNION_WIND REUNION_PRES REUNION_TNUM REUNION_CI REUNION_RMW REUNION_R34_NE REUNION_R34_SE REUNION_R34_SW REUNION_R34_NW REUNION_R50_NE REUNION_R50_SE REUNION_R50_SW REUNION_R50_NW REUNION_R64_NE REUNION_R64_SE REUNION_R64_SW REUNION_R64_NW BOM_LAT BOM_LON BOM_TYPE BOM_WIND BOM_PRES BOM_TNUM BOM_CI BOM_RMW BOM_R34_NE BOM_R34_SE BOM_R34_SW BOM_R34_NW BOM_R50_NE BOM_R50_SE BOM_R50_SW BOM_R50_NW BOM_R64_NE BOM_R64_SE BOM_R64_SW BOM_R64_NW BOM_ROCI BOM_POCI BOM_EYE BOM_POS_METHOD BOM_PRES_METHOD NADI_LAT NADI_LON NADI_CAT NADI_WIND NADI_PRES WELLINGTON_LAT WELLINGTON_LON WELLINGTON_WIND WELLINGTON_PRES DS824_LAT DS824_LON DS824_STAGE DS824_WIND DS824_PRES TD9636_LAT TD9636_LON TD9636_STAGE TD9636_WIND TD9636_PRES TD9635_LAT TD9635_LON TD9635_WIND TD9635_PRES TD9635_ROCI NEUMANN_LAT NEUMANN_LON NEUMANN_CLASS NEUMANN_WIND NEUMANN_PRES MLC_LAT MLC_LON MLC_CLASS MLC_WIND MLC_PRES USA_GUST BOM_GUST BOM_GUST_PER REUNION_GUST REUNION_GUST_PER USA_SEAHGT USA_SEARAD_NE USA_SEARAD_SE USA_SEARAD_SW USA_SEARAD_NW STORM_SPEED STORM_DIR
1952141N12084 1952 29 NI BB NOT_NAMED 1952-05-19 18:00:00 TS 12.2000 83.6000 main 371 349 O________O____ jtwc_io IO021952 12.2000 83.6000 -1 12.2000 83.6000 TC 4 282
1952141N12084 1952 29 NI BB NOT_NAMED 1952-05-19 21:00:00 TS 12.2425 83.3975 main 349 326 P________P____ IO021952 12.2425 83.3975 -1 12.2425 83.3975 TC 4 284
1952141N12084 1952 29 NI BB NOT_NAMED 1952-05-20 00:00:00 TS 12.3000 83.2000 main 326 304 O________O____ jtwc_io IO021952 12.3000 83.2000 -1 12.3000 83.2000 TC 65 4 291
1952141N12084 1952 29 NI BB NOT_NAMED 1952-05-20 03:00:00 TS 12.3866 83.0066 main 304 282 P________PO___ IO021952 12.3850 83.0075 -1 12.3850 83.0075 TC 65 12.4000 83.0000 4 4 297
1952141N12084 1952 29 NI BB NOT_NAMED 1952-05-20 06:00:00 TS 12.5041 82.7922 main 282 260 O________OP___ jtwc_io IO021952 12.5000 82.8000 -1 12.5000 82.8000 TC 65 12.5205 82.7611 4 5 300
1952141N12084 1952 29 NI BB NOT_NAMED 1952-05-20 09:00:00 TS 12.6480 82.5439 main 249 223 P________PP___ IO021952 12.6500 82.5500 -1 12.6500 82.5500 TC 65 12.6427 82.5277 4 6 301
1952141N12084 1952 29 NI BB NOT_NAMED 1952-05-20 12:00:00 TS 12.7895 82.3018 main 223 200 O________OP___ jtwc_io IO021952 12.8000 82.3000 -1 12.8000 82.3000 TC 65 12.7685 82.3054 4 5 300
1952141N12084 1952 29 NI BB NOT_NAMED 1952-05-20 15:00:00 TS 12.9000 82.0900 main 200 176 P________PO___ IO021952 12.9000 82.0850 -1 12.9000 82.0850 TC 65 12.9000 82.1000 4 4 300
1952141N12084 1952 29 NI BB NOT_NAMED 1952-05-20 18:00:00 TS 13.0129 81.9054 main 176 153 O________OP___ jtwc_io IO021952 13.0000 81.9000 -1 13.0000 81.9000 TC 65 13.0387 81.9162 4 4 307
1952141N12084 1952 29 NI BB NOT_NAMED 1952-05-20 21:00:00 TS 13.1516 81.7416 main 152 140 P________PP___ IO021952 13.1350 81.7350 -1 13.1350 81.7350 TC 65 13.1849 81.7550 4 4 316
1952141N12084 1952 29 NI BB NOT_NAMED 1952-05-21 00:00:00 TS 13.3129 81.6054 main 140 129 O________OP___ jtwc_io IO021952 13.3000 81.6000 -1 13.3000 81.6000 TC 65 13.3387 81.6162 4 4 325
1952141N12084 1952 29 NI BB NOT_NAMED 1952-05-21 03:00:00 TS 13.5000 81.4900 main 129 118 P________PO___ IO021952 13.5000 81.4850 -1 13.5000 81.4850 TC 50 13.5000 81.5000 4 4 332
1952141N12084 1952 29 NI BB NOT_NAMED 1952-05-21 06:00:00 TS 13.6879 81.3984 main 118 108 O________OP___ jtwc_io IO021952 13.7000 81.4000 -1 13.7000 81.4000 TC 35 13.6637 81.3953 4 4 336
1952141N12084 1952 29 NI BB NOT_NAMED 1952-05-21 09:00:00 TS 13.8450 81.3325 main 108 108 P________PP___ IO021952 13.8500 81.3425 -1 13.8500 81.3425 TC 35 13.8350 81.3124 4 3 341
1952141N12084 1952 29 NI BB NOT_NAMED 1952-05-21 12:00:00 TS 14.0046 81.2828 main 110 102 O________OP___ jtwc_io IO021952 14.0000 81.3000 -1 14.0000 81.3000 TC 35 14.0137 81.2484 4 4 345
1952141N12084 1952 29 NI BB NOT_NAMED 1952-05-21 15:00:00 TS 14.1950 81.2333 main 106 106 P________PO___ IO021952 14.1925 81.2500 -1 14.1925 81.2500 TC 30 14.2000 81.2000 2 4 346
1952141N12084 1952 29 NI BB NOT_NAMED 1952-05-21 18:00:00 TS 14.3976 81.1828 main 110 96 O________OP___ jtwc_io IO021952 14.4000 81.2000 -1 14.4000 81.2000 TC 25 14.3928 81.1485 2 4 347
1952141N12084 1952 29 NI BB NOT_NAMED 1952-05-21 21:00:00 TS 14.5975 81.1325 main 96 96 P________PP___ IO021952 14.6000 81.1425 -1 14.6000 81.1425 TC 25 14.5925 81.1125 2 4 348
1952141N12084 1952 29 NI BB NOT_NAMED 1952-05-22 00:00:00 TS 14.7986 81.0984 main 99 81 O________OP___ jtwc_io IO021952 14.8000 81.1000 -1 14.8000 81.1000 TC 25 14.7959 81.0954 2 4 356
1952141N12084 1952 29 NI BB NOT_NAMED 1952-05-22 03:00:00 TS 15.0000 81.0900 main 81 59 P________PO___ IO021952 15.0000 81.0850 -1 15.0000 81.0850 TC 25 15.0000 81.1000 1 4 3
1952141N12084 1952 29 NI BB NOT_NAMED 1952-05-22 06:00:00 TS 15.2054 81.1054 main 59 39 O________OP___ jtwc_io IO021952 15.2000 81.1000 -1 15.2000 81.1000 TC 25 15.2162 81.1162 1 4 7
1952141N12084 1952 29 NI BB NOT_NAMED 1952-05-22 09:00:00 TS 15.4100 81.1417 main 39 30 P________PP___ IO021952 15.4000 81.1350 -1 15.4000 81.1350 TC 25 15.4300 81.1550 1 4 13
1952141N12084 1952 29 NI BB NOT_NAMED 1952-05-22 12:00:00 TS 15.6096 81.2054 main 30 24 O________OP___ jtwc_io IO021952 15.6000 81.2000 -1 15.6000 81.2000 TC 25 15.6287 81.2162 1 4 20
1952141N12084 1952 29 NI BB NOT_NAMED 1952-05-22 15:00:00 TS 15.8150 81.2950 main 24 15 P________PO___ IO021952 15.8225 81.2925 -1 15.8225 81.2925 TC 25 15.8000 81.3000 1 4 28
1952141N12084 1952 29 NI BB NOT_NAMED 1952-05-22 18:00:00 TS 15.9740 81.4021 main 21 21 O________OP___ jtwc_io IO021952 16.0000 81.4000 -1 16.0000 81.4000 TC 25 15.9351 81.4053 1 3 40
1952141N12084 1952 29 NI BB NOT_NAMED 1952-05-22 21:00:00 TS 16.0629 81.5132 main 30 24 P________PP___ IO021952 16.0800 81.5025 -1 16.0800 81.5025 TC 25 16.0401 81.5275 1 3 58
1952141N12084 1952 29 NI BB NOT_NAMED 1952-05-23 00:00:00 TS 16.1125 81.6304 main 24 11 O________OP___ jtwc_io IO021952 16.1000 81.6000 -1 16.1000 81.6000 TC 25 16.1251 81.6609 1 3 63
1952141N12084 1952 29 NI BB NOT_NAMED 1952-05-23 03:00:00 NR 16.2000 81.8000 main 15 __________O___ IO021952 -1 TC 16.2000 81.8000 1 4 62

IBTrACS Databaseについて

本データベースは、米国NOAAが公開する1842年以降の世界の熱帯低気圧のベストトラックデータアーカイブInternational Best Track Archive for Climate Stewardship (IBTrACS)を、ウェブで閲覧しやすい形式に変換したものです。

最終更新日:2021-10-08